sensor_id;sensor_type;location;lat;lon;timestamp;pressure;altitude;pressure_sealevel;temperature;humidity
73455;BME280;61690;51.824;6.306;2022-08-25T00:01:33;101620.09;;;24.45;49.36
73455;BME280;61690;51.824;6.306;2022-08-25T00:04:01;101613.91;;;24.33;50.09
73455;BME280;61690;51.824;6.306;2022-08-25T00:06:28;101617.88;;;24.27;50.70
73455;BME280;61690;51.824;6.306;2022-08-25T00:08:54;101612.94;;;24.23;51.56
73455;BME280;61690;51.824;6.306;2022-08-25T00:11:25;101615.00;;;24.19;51.85
73455;BME280;61690;51.824;6.306;2022-08-25T00:13:54;101607.75;;;24.21;51.27
73455;BME280;61690;51.824;6.306;2022-08-25T00:16:21;101615.72;;;24.21;51.34
73455;BME280;61690;51.824;6.306;2022-08-25T00:18:50;101611.50;;;24.19;51.45
73455;BME280;61690;51.824;6.306;2022-08-25T00:21:16;101617.75;;;24.18;51.57
73455;BME280;61690;51.824;6.306;2022-08-25T00:23:43;101615.00;;;24.19;51.12
73455;BME280;61690;51.824;6.306;2022-08-25T00:26:10;101611.38;;;24.20;51.08
73455;BME280;61690;51.824;6.306;2022-08-25T00:28:36;101611.63;;;24.17;51.01
73455;BME280;61690;51.824;6.306;2022-08-25T00:31:03;101603.53;;;24.19;50.81
73455;BME280;61690;51.824;6.306;2022-08-25T00:33:29;101611.13;;;24.12;50.69
73455;BME280;61690;51.824;6.306;2022-08-25T00:35:56;101608.47;;;24.12;50.28
73455;BME280;61690;51.824;6.306;2022-08-25T00:38:22;101613.53;;;24.15;50.00
73455;BME280;61690;51.824;6.306;2022-08-25T00:40:48;101609.31;;;24.13;50.01
73455;BME280;61690;51.824;6.306;2022-08-25T00:43:44;101612.59;;;24.05;49.22
73455;BME280;61690;51.824;6.306;2022-08-25T00:46:16;101615.09;;;24.18;49.62
73455;BME280;61690;51.824;6.306;2022-08-25T00:48:44;101613.06;;;24.21;48.93
73455;BME280;61690;51.824;6.306;2022-08-25T00:51:14;101612.31;;;24.08;49.36
73455;BME280;61690;51.824;6.306;2022-08-25T00:53:41;101614.25;;;24.06;49.30
73455;BME280;61690;51.824;6.306;2022-08-25T00:56:07;101616.44;;;24.23;47.04
73455;BME280;61690;51.824;6.306;2022-08-25T00:58:34;101618.63;;;24.07;47.93
73455;BME280;61690;51.824;6.306;2022-08-25T01:01:00;101617.88;;;24.27;47.02
73455;BME280;61690;51.824;6.306;2022-08-25T01:03:28;101625.16;;;24.25;48.05
73455;BME280;61690;51.824;6.306;2022-08-25T01:05:54;101616.94;;;24.29;47.16
73455;BME280;61690;51.824;6.306;2022-08-25T01:08:23;101624.19;;;24.26;47.88
73455;BME280;61690;51.824;6.306;2022-08-25T01:10:50;101623.94;;;24.41;47.91
73455;BME280;61690;51.824;6.306;2022-08-25T01:13:20;101632.03;;;24.17;47.03
73455;BME280;61690;51.824;6.306;2022-08-25T01:15:48;101628.72;;;23.91;47.38
73455;BME280;61690;51.824;6.306;2022-08-25T01:18:17;101633.06;;;23.80;47.73
73455;BME280;61690;51.824;6.306;2022-08-25T01:20:47;101625.75;;;23.36;49.12
73455;BME280;61690;51.824;6.306;2022-08-25T01:23:13;101621.03;;;23.28;49.04
73455;BME280;61690;51.824;6.306;2022-08-25T01:25:52;101623.34;;;22.96;50.60
73455;BME280;61690;51.824;6.306;2022-08-25T01:28:20;101620.44;;;23.12;49.78
73455;BME280;61690;51.824;6.306;2022-08-25T01:30:46;101619.22;;;23.28;49.19
73455;BME280;61690;51.824;6.306;2022-08-25T01:33:12;101628.78;;;23.66;48.98
73455;BME280;61690;51.824;6.306;2022-08-25T01:35:38;101628.50;;;23.94;47.78
73455;BME280;61690;51.824;6.306;2022-08-25T01:38:06;101623.31;;;23.92;47.42
73455;BME280;61690;51.824;6.306;2022-08-25T01:40:33;101622.72;;;24.00;47.45
73455;BME280;61690;51.824;6.306;2022-08-25T01:43:07;101624.63;;;23.86;48.37
73455;BME280;61690;51.824;6.306;2022-08-25T01:45:37;101627.94;;;23.77;48.96
73455;BME280;61690;51.824;6.306;2022-08-25T01:48:04;101623.28;;;23.81;48.95
73455;BME280;61690;51.824;6.306;2022-08-25T01:50:30;101622.63;;;23.77;49.10
73455;BME280;61690;51.824;6.306;2022-08-25T01:53:03;101627.22;;;23.75;48.88
73455;BME280;61690;51.824;6.306;2022-08-25T01:55:29;101621.91;;;23.75;49.36
73455;BME280;61690;51.824;6.306;2022-08-25T01:57:56;101622.44;;;23.80;48.96
73455;BME280;61690;51.824;6.306;2022-08-25T02:00:22;101621.00;;;23.87;48.33
73455;BME280;61690;51.824;6.306;2022-08-25T02:02:48;101618.78;;;23.81;48.09
73455;BME280;61690;51.824;6.306;2022-08-25T02:05:14;101622.88;;;23.74;48.42
73455;BME280;61690;51.824;6.306;2022-08-25T02:07:41;101624.66;;;23.74;48.08
73455;BME280;61690;51.824;6.306;2022-08-25T02:10:08;101622.38;;;23.69;48.54
73455;BME280;61690;51.824;6.306;2022-08-25T02:12:34;101622.88;;;23.74;48.12
73455;BME280;61690;51.824;6.306;2022-08-25T02:15:01;101623.81;;;23.73;47.61
73455;BME280;61690;51.824;6.306;2022-08-25T02:17:28;101623.72;;;23.75;47.72
73455;BME280;61690;51.824;6.306;2022-08-25T02:19:53;101615.34;;;23.68;47.97
73455;BME280;61690;51.824;6.306;2022-08-25T02:22:21;101619.13;;;23.77;47.37
73455;BME280;61690;51.824;6.306;2022-08-25T02:24:46;101624.56;;;23.75;47.21
73455;BME280;61690;51.824;6.306;2022-08-25T02:27:12;101625.53;;;23.74;47.17
73455;BME280;61690;51.824;6.306;2022-08-25T02:29:37;101629.84;;;23.64;47.22
73455;BME280;61690;51.824;6.306;2022-08-25T02:32:03;101627.78;;;23.67;46.93
73455;BME280;61690;51.824;6.306;2022-08-25T02:34:28;101631.28;;;23.68;47.10
73455;BME280;61690;51.824;6.306;2022-08-25T02:36:54;101625.38;;;23.64;46.94
73455;BME280;61690;51.824;6.306;2022-08-25T02:39:19;101630.81;;;23.63;47.05
73455;BME280;61690;51.824;6.306;2022-08-25T02:41:44;101628.16;;;23.63;47.35
73455;BME280;61690;51.824;6.306;2022-08-25T02:44:10;101619.94;;;23.66;47.17
73455;BME280;61690;51.824;6.306;2022-08-25T02:46:36;101620.91;;;23.65;47.36
73455;BME280;61690;51.824;6.306;2022-08-25T02:49:03;101623.69;;;23.63;46.99
73455;BME280;61690;51.824;6.306;2022-08-25T02:51:29;101622.22;;;23.59;47.26
73455;BME280;61690;51.824;6.306;2022-08-25T02:53:55;101626.69;;;23.59;46.97
73455;BME280;61690;51.824;6.306;2022-08-25T02:56:22;101619.69;;;23.58;47.04
73455;BME280;61690;51.824;6.306;2022-08-25T02:58:48;101618.72;;;23.59;47.33
73455;BME280;61690;51.824;6.306;2022-08-25T03:01:14;101608.22;;;23.57;47.06
73455;BME280;61690;51.824;6.306;2022-08-25T03:03:42;101615.19;;;23.58;47.12
73455;BME280;61690;51.824;6.306;2022-08-25T03:06:09;101606.41;;;23.58;47.06
73455;BME280;61690;51.824;6.306;2022-08-25T03:08:37;101603.75;;;23.58;46.98
73455;BME280;61690;51.824;6.306;2022-08-25T03:11:03;101608.84;;;23.61;47.02
73455;BME280;61690;51.824;6.306;2022-08-25T03:13:29;101607.59;;;23.54;46.93
73455;BME280;61690;51.824;6.306;2022-08-25T03:15:57;101599.75;;;23.52;46.98
73455;BME280;61690;51.824;6.306;2022-08-25T03:18:22;101593.47;;;23.53;46.99
73455;BME280;61690;51.824;6.306;2022-08-25T03:20:47;101591.66;;;23.54;46.83
73455;BME280;61690;51.824;6.306;2022-08-25T03:23:13;101597.69;;;23.56;46.64
73455;BME280;61690;51.824;6.306;2022-08-25T03:25:39;101584.53;;;23.54;46.76
73455;BME280;61690;51.824;6.306;2022-08-25T03:28:24;101582.25;;;23.49;46.79
73455;BME280;61690;51.824;6.306;2022-08-25T03:30:49;101578.59;;;23.51;46.63
73455;BME280;61690;51.824;6.306;2022-08-25T03:33:15;101581.03;;;23.54;46.40
73455;BME280;61690;51.824;6.306;2022-08-25T03:35:40;101573.19;;;23.52;46.57
73455;BME280;61690;51.824;6.306;2022-08-25T03:38:05;101567.28;;;23.60;46.33
73455;BME280;61690;51.824;6.306;2022-08-25T03:40:31;101579.34;;;23.53;46.55
73455;BME280;61690;51.824;6.306;2022-08-25T03:42:57;101578.72;;;23.49;46.55
73455;BME280;61690;51.824;6.306;2022-08-25T03:45:23;101581.50;;;23.47;46.84
73455;BME280;61690;51.824;6.306;2022-08-25T03:47:51;101574.50;;;23.46;46.55
73455;BME280;61690;51.824;6.306;2022-08-25T03:50:18;101572.56;;;23.48;46.58
73455;BME280;61690;51.824;6.306;2022-08-25T03:52:49;101567.97;;;23.51;46.44
73455;BME280;61690;51.824;6.306;2022-08-25T03:55:15;101567.25;;;23.48;46.67
73455;BME280;61690;51.824;6.306;2022-08-25T03:57:40;101562.94;;;23.47;46.53
73455;BME280;61690;51.824;6.306;2022-08-25T04:00:08;101566.59;;;23.34;46.69
73455;BME280;61690;51.824;6.306;2022-08-25T04:02:33;101564.59;;;23.48;46.13
73455;BME280;61690;51.824;6.306;2022-08-25T04:04:59;101558.53;;;23.35;46.42
73455;BME280;61690;51.824;6.306;2022-08-25T04:07:25;101554.63;;;23.17;46.68
73455;BME280;61690;51.824;6.306;2022-08-25T04:09:53;101552.22;;;23.25;46.52
73455;BME280;61690;51.824;6.306;2022-08-25T04:12:19;101549.34;;;23.28;46.25
73455;BME280;61690;51.824;6.306;2022-08-25T04:14:44;101557.13;;;23.54;46.52
73455;BME280;61690;51.824;6.306;2022-08-25T04:17:09;101557.09;;;23.42;46.45
73455;BME280;61690;51.824;6.306;2022-08-25T04:19:35;101553.00;;;23.14;46.66
73455;BME280;61690;51.824;6.306;2022-08-25T04:22:00;101549.44;;;23.02;47.17
73455;BME280;61690;51.824;6.306;2022-08-25T04:24:25;101550.00;;;23.07;46.70
73455;BME280;61690;51.824;6.306;2022-08-25T04:26:51;101552.19;;;23.01;46.66
73455;BME280;61690;51.824;6.306;2022-08-25T04:29:20;101547.78;;;23.01;46.71
73455;BME280;61690;51.824;6.306;2022-08-25T04:31:46;101550.41;;;22.77;47.19
73455;BME280;61690;51.824;6.306;2022-08-25T04:34:15;101544.72;;;22.70;47.27
73455;BME280;61690;51.824;6.306;2022-08-25T04:36:40;101544.56;;;22.72;47.36
73455;BME280;61690;51.824;6.306;2022-08-25T04:39:05;101546.41;;;22.71;47.33
73455;BME280;61690;51.824;6.306;2022-08-25T04:41:31;101543.06;;;22.81;47.31
73455;BME280;61690;51.824;6.306;2022-08-25T04:43:59;101547.72;;;22.90;46.90
73455;BME280;61690;51.824;6.306;2022-08-25T04:46:27;101550.13;;;22.93;46.62
73455;BME280;61690;51.824;6.306;2022-08-25T04:48:54;101549.44;;;23.02;46.26
73455;BME280;61690;51.824;6.306;2022-08-25T04:51:23;101556.66;;;23.00;46.79
73455;BME280;61690;51.824;6.306;2022-08-25T04:53:49;101556.13;;;23.08;46.46
73455;BME280;61690;51.824;6.306;2022-08-25T04:56:17;101554.00;;;23.00;46.50
73455;BME280;61690;51.824;6.306;2022-08-25T04:58:43;101547.97;;;22.98;46.84
73455;BME280;61690;51.824;6.306;2022-08-25T05:01:16;101555.41;;;22.93;46.62
73455;BME280;61690;51.824;6.306;2022-08-25T05:03:44;101557.75;;;22.98;46.80
73455;BME280;61690;51.824;6.306;2022-08-25T05:06:10;101558.16;;;23.04;46.68
73455;BME280;61690;51.824;6.306;2022-08-25T05:08:36;101562.41;;;23.07;46.68
73455;BME280;61690;51.824;6.306;2022-08-25T05:11:05;101564.25;;;23.18;46.12
73455;BME280;61690;51.824;6.306;2022-08-25T05:13:31;101559.72;;;22.83;47.07
73455;BME280;61690;51.824;6.306;2022-08-25T05:15:58;101559.50;;;22.49;47.67
73455;BME280;61690;51.824;6.306;2022-08-25T05:18:26;101552.81;;;22.56;47.93
73455;BME280;61690;51.824;6.306;2022-08-25T05:20:53;101560.22;;;22.51;47.85
73455;BME280;61690;51.824;6.306;2022-08-25T05:23:20;101556.88;;;22.97;47.12
73455;BME280;61690;51.824;6.306;2022-08-25T05:25:46;101554.94;;;23.12;48.22
73455;BME280;61690;51.824;6.306;2022-08-25T05:28:12;101554.22;;;23.10;48.22
73455;BME280;61690;51.824;6.306;2022-08-25T05:30:40;101553.25;;;23.11;49.26
73455;BME280;61690;51.824;6.306;2022-08-25T05:33:06;101552.41;;;23.10;49.16
73455;BME280;61690;51.824;6.306;2022-08-25T05:35:32;101555.28;;;23.07;49.97
73455;BME280;61690;51.824;6.306;2022-08-25T05:37:57;101551.44;;;23.12;50.00
73455;BME280;61690;51.824;6.306;2022-08-25T05:40:23;101551.66;;;23.08;50.41
73455;BME280;61690;51.824;6.306;2022-08-25T05:42:49;101544.25;;;23.01;51.16
73455;BME280;61690;51.824;6.306;2022-08-25T05:45:15;101552.84;;;23.04;51.07
73455;BME280;61690;51.824;6.306;2022-08-25T05:47:41;101551.38;;;23.00;51.34
73455;BME280;61690;51.824;6.306;2022-08-25T05:50:07;101550.94;;;23.06;50.98
73455;BME280;61690;51.824;6.306;2022-08-25T05:52:33;101549.00;;;23.08;51.16
73455;BME280;61690;51.824;6.306;2022-08-25T05:54:59;101552.34;;;22.99;51.55
73455;BME280;61690;51.824;6.306;2022-08-25T05:57:24;101561.97;;;23.00;51.46
73455;BME280;61690;51.824;6.306;2022-08-25T05:59:50;101560.06;;;23.02;51.59
73455;BME280;61690;51.824;6.306;2022-08-25T06:02:15;101559.75;;;23.07;51.69
73455;BME280;61690;51.824;6.306;2022-08-25T06:05:08;101567.19;;;23.02;51.60
73455;BME280;61690;51.824;6.306;2022-08-25T06:07:33;101563.91;;;22.98;51.73
73455;BME280;61690;51.824;6.306;2022-08-25T06:10:00;101565.81;;;22.96;51.29
73455;BME280;61690;51.824;6.306;2022-08-25T06:12:26;101569.94;;;23.00;50.54
73455;BME280;61690;51.824;6.306;2022-08-25T06:14:51;101572.41;;;23.03;50.03
73455;BME280;61690;51.824;6.306;2022-08-25T06:17:17;101570.50;;;23.05;49.65
73455;BME280;61690;51.824;6.306;2022-08-25T06:19:42;101564.81;;;23.10;49.94
73455;BME280;61690;51.824;6.306;2022-08-25T06:22:08;101570.03;;;23.12;49.63
73455;BME280;61690;51.824;6.306;2022-08-25T06:24:33;101577.88;;;23.13;49.55
73455;BME280;61690;51.824;6.306;2022-08-25T06:26:59;101566.19;;;23.16;49.49
73455;BME280;61690;51.824;6.306;2022-08-25T06:29:25;101574.31;;;23.25;49.38
73455;BME280;61690;51.824;6.306;2022-08-25T06:31:50;101571.53;;;23.27;49.37
73455;BME280;61690;51.824;6.306;2022-08-25T06:34:16;101574.81;;;23.31;49.29
73455;BME280;61690;51.824;6.306;2022-08-25T06:36:42;101570.44;;;23.29;49.68
73455;BME280;61690;51.824;6.306;2022-08-25T06:39:08;101570.59;;;23.28;49.61
73455;BME280;61690;51.824;6.306;2022-08-25T06:41:34;101566.00;;;23.30;49.44
73455;BME280;61690;51.824;6.306;2022-08-25T06:43:59;101561.19;;;23.35;49.46
73455;BME280;61690;51.824;6.306;2022-08-25T06:46:26;101566.38;;;23.37;49.49
73455;BME280;61690;51.824;6.306;2022-08-25T06:48:55;101564.56;;;23.37;49.52
73455;BME280;61690;51.824;6.306;2022-08-25T06:51:23;101572.53;;;23.37;49.73
73455;BME280;61690;51.824;6.306;2022-08-25T06:53:50;101567.94;;;23.39;49.50
73455;BME280;61690;51.824;6.306;2022-08-25T06:56:18;101568.81;;;23.40;49.51
73455;BME280;61690;51.824;6.306;2022-08-25T06:58:44;101574.97;;;23.40;49.59
73455;BME280;61690;51.824;6.306;2022-08-25T07:01:18;101575.81;;;23.41;49.78
73455;BME280;61690;51.824;6.306;2022-08-25T07:03:46;101577.50;;;23.42;49.59
73455;BME280;61690;51.824;6.306;2022-08-25T07:06:12;101571.34;;;23.41;49.31
73455;BME280;61690;51.824;6.306;2022-08-25T07:08:37;101576.41;;;23.44;49.37
73455;BME280;61690;51.824;6.306;2022-08-25T07:11:07;101573.03;;;23.42;49.59
73455;BME280;61690;51.824;6.306;2022-08-25T07:13:34;101574.59;;;23.45;49.63
73455;BME280;61690;51.824;6.306;2022-08-25T07:16:00;101571.94;;;23.45;49.34
73455;BME280;61690;51.824;6.306;2022-08-25T07:18:26;101570.16;;;23.45;49.78
73455;BME280;61690;51.824;6.306;2022-08-25T07:20:51;101561.09;;;23.48;49.76
73455;BME280;61690;51.824;6.306;2022-08-25T07:23:18;101553.97;;;23.48;49.62
73455;BME280;61690;51.824;6.306;2022-08-25T07:25:44;101554.81;;;23.49;49.65
73455;BME280;61690;51.824;6.306;2022-08-25T07:28:09;101552.31;;;23.47;49.53
73455;BME280;61690;51.824;6.306;2022-08-25T07:30:35;101553.03;;;23.49;49.44
73455;BME280;61690;51.824;6.306;2022-08-25T07:33:00;101554.81;;;23.49;49.87
73455;BME280;61690;51.824;6.306;2022-08-25T07:35:25;101558.34;;;23.49;49.97
73455;BME280;61690;51.824;6.306;2022-08-25T07:37:54;101554.50;;;23.54;49.63
73455;BME280;61690;51.824;6.306;2022-08-25T07:40:28;101555.56;;;23.51;49.73
73455;BME280;61690;51.824;6.306;2022-08-25T07:42:56;101552.06;;;23.51;49.53
73455;BME280;61690;51.824;6.306;2022-08-25T07:45:28;101553.66;;;23.53;49.47
73455;BME280;61690;51.824;6.306;2022-08-25T07:47:59;101550.84;;;23.55;49.48
73455;BME280;61690;51.824;6.306;2022-08-25T07:50:26;101545.53;;;23.55;49.83
73455;BME280;61690;51.824;6.306;2022-08-25T07:52:52;101549.78;;;23.57;49.73
73455;BME280;61690;51.824;6.306;2022-08-25T07:55:18;101552.56;;;23.56;49.82
73455;BME280;61690;51.824;6.306;2022-08-25T07:57:43;101549.78;;;23.57;49.70
73455;BME280;61690;51.824;6.306;2022-08-25T08:00:12;101549.69;;;23.59;49.48
73455;BME280;61690;51.824;6.306;2022-08-25T08:02:39;101558.47;;;23.59;49.47
73455;BME280;61690;51.824;6.306;2022-08-25T08:05:05;101563.78;;;23.59;49.61
73455;BME280;61690;51.824;6.306;2022-08-25T08:07:31;101558.47;;;23.59;49.74
73455;BME280;61690;51.824;6.306;2022-08-25T08:09:56;101555.72;;;23.61;49.50
73455;BME280;61690;51.824;6.306;2022-08-25T08:12:23;101554.75;;;23.62;49.59
73455;BME280;61690;51.824;6.306;2022-08-25T08:14:49;101554.63;;;23.63;49.75
73455;BME280;61690;51.824;6.306;2022-08-25T08:17:14;101551.13;;;23.63;49.92
73455;BME280;61690;51.824;6.306;2022-08-25T08:19:40;101549.44;;;23.62;49.81
73455;BME280;61690;51.824;6.306;2022-08-25T08:22:05;101548.47;;;23.63;49.73
73455;BME280;61690;51.824;6.306;2022-08-25T08:24:32;101545.72;;;23.64;49.91
73455;BME280;61690;51.824;6.306;2022-08-25T08:27:07;101551.03;;;23.64;49.94
73455;BME280;61690;51.824;6.306;2022-08-25T08:29:36;101549.94;;;23.67;49.83
73455;BME280;61690;51.824;6.306;2022-08-25T08:32:03;101543.78;;;23.66;49.57
73455;BME280;61690;51.824;6.306;2022-08-25T08:34:29;101539.31;;;23.67;49.65
73455;BME280;61690;51.824;6.306;2022-08-25T08:36:55;101533.16;;;23.66;49.89
73455;BME280;61690;51.824;6.306;2022-08-25T08:39:21;101530.59;;;23.65;49.98
73455;BME280;61690;51.824;6.306;2022-08-25T08:52:36;101519.50;;;23.71;49.75
73455;BME280;61690;51.824;6.306;2022-08-25T08:55:13;101523.59;;;23.75;49.78
73455;BME280;61690;51.824;6.306;2022-08-25T08:57:44;101513.25;;;23.72;49.72
73455;BME280;61690;51.824;6.306;2022-08-25T09:00:13;101505.28;;;23.72;49.99
73455;BME280;61690;51.824;6.306;2022-08-25T09:05:13;101502.47;;;23.74;49.96
73455;BME280;61690;51.824;6.306;2022-08-25T09:08:01;101501.41;;;23.76;49.96
73455;BME280;61690;51.824;6.306;2022-08-25T09:10:38;101503.19;;;23.76;49.99
73455;BME280;61690;51.824;6.306;2022-08-25T09:13:37;101504.06;;;23.76;49.81
73455;BME280;61690;51.824;6.306;2022-08-25T09:16:27;101498.59;;;23.78;50.04
73455;BME280;61690;51.824;6.306;2022-08-25T09:25:07;101500.22;;;23.80;49.93
73455;BME280;61690;51.824;6.306;2022-08-25T09:27:40;101487.91;;;23.79;49.96
73455;BME280;61690;51.824;6.306;2022-08-25T09:32:45;101490.56;;;23.79;50.12
73455;BME280;61690;51.824;6.306;2022-08-25T09:35:24;101490.31;;;23.82;49.97
73455;BME280;61690;51.824;6.306;2022-08-25T09:37:58;101479.69;;;23.82;50.06
73455;BME280;61690;51.824;6.306;2022-08-25T09:40:25;101476.94;;;23.84;50.29
73455;BME280;61690;51.824;6.306;2022-08-25T09:42:54;101475.34;;;23.81;50.33
73455;BME280;61690;51.824;6.306;2022-08-25T09:45:33;101477.78;;;23.84;50.00
73455;BME280;61690;51.824;6.306;2022-08-25T09:47:59;101470.75;;;23.83;49.98
73455;BME280;61690;51.824;6.306;2022-08-25T09:50:29;101472.22;;;23.87;50.08
73455;BME280;61690;51.824;6.306;2022-08-25T09:53:10;101472.22;;;23.87;50.26
73455;BME280;61690;51.824;6.306;2022-08-25T09:55:38;101468.59;;;23.88;50.28
73455;BME280;61690;51.824;6.306;2022-08-25T09:58:23;101460.63;;;23.88;50.29
73455;BME280;61690;51.824;6.306;2022-08-25T10:01:13;101459.66;;;23.90;50.03
73455;BME280;61690;51.824;6.306;2022-08-25T10:04:04;101468.34;;;23.92;50.02
73455;BME280;61690;51.824;6.306;2022-08-25T10:06:41;101459.66;;;23.90;50.04
73455;BME280;61690;51.824;6.306;2022-08-25T10:09:07;101454.19;;;23.91;50.17
73455;BME280;61690;51.824;6.306;2022-08-25T10:11:40;101452.41;;;23.92;50.32
73455;BME280;61690;51.824;6.306;2022-08-25T10:14:17;101448.78;;;23.93;50.24
73455;BME280;61690;51.824;6.306;2022-08-25T10:16:44;101450.22;;;23.97;50.21
73455;BME280;61690;51.824;6.306;2022-08-25T10:22:09;101443.09;;;23.97;50.36
73455;BME280;61690;51.824;6.306;2022-08-25T10:24:35;101438.13;;;24.04;50.04
73455;BME280;61690;51.824;6.306;2022-08-25T10:34:55;101423.56;;;24.31;49.82
73455;BME280;61690;51.824;6.306;2022-08-25T10:37:38;101428.19;;;24.29;50.33
73455;BME280;61690;51.824;6.306;2022-08-25T10:40:27;101422.41;;;24.12;50.15
73455;BME280;61690;51.824;6.306;2022-08-25T10:45:38;101415.91;;;24.16;50.47
73455;BME280;61690;51.824;6.306;2022-08-25T10:50:59;101411.88;;;24.22;50.11
73455;BME280;61690;51.824;6.306;2022-08-25T10:56:59;101409.25;;;24.43;49.58
73455;BME280;61690;51.824;6.306;2022-08-25T10:59:34;101403.13;;;24.31;50.13
73455;BME280;61690;51.824;6.306;2022-08-25T11:04:52;101402.50;;;24.39;50.12
73455;BME280;61690;51.824;6.306;2022-08-25T11:07:24;101392.16;;;24.36;50.31
73455;BME280;61690;51.824;6.306;2022-08-25T11:09:56;101391.28;;;24.35;50.17
73455;BME280;61690;51.824;6.306;2022-08-25T11:12:32;101394.25;;;24.21;50.52
73455;BME280;61690;51.824;6.306;2022-08-25T11:15:01;101386.50;;;24.18;50.50
73455;BME280;61690;51.824;6.306;2022-08-25T11:17:47;101389.84;;;24.31;50.23
73455;BME280;61690;51.824;6.306;2022-08-25T11:20:18;101386.88;;;24.24;50.58
73455;BME280;61690;51.824;6.306;2022-08-25T11:23:19;101384.38;;;24.44;50.52
73455;BME280;61690;51.824;6.306;2022-08-25T11:25:45;101382.94;;;24.51;50.44
73455;BME280;61690;51.824;6.306;2022-08-25T11:28:30;101381.75;;;24.33;51.11
73455;BME280;61690;51.824;6.306;2022-08-25T11:31:00;101378.25;;;24.32;50.62
73455;BME280;61690;51.824;6.306;2022-08-25T11:33:28;101377.63;;;24.51;50.23
73455;BME280;61690;51.824;6.306;2022-08-25T11:36:11;101374.44;;;24.46;50.36
73455;BME280;61690;51.824;6.306;2022-08-25T11:39:50;101370.47;;;24.52;50.49
73455;BME280;61690;51.824;6.306;2022-08-25T11:51:56;101365.22;;;24.82;51.18
73455;BME280;61690;51.824;6.306;2022-08-25T11:54:34;101362.81;;;24.58;50.70
73455;BME280;61690;51.824;6.306;2022-08-25T11:57:04;101355.03;;;24.34;51.13
73455;BME280;61690;51.824;6.306;2022-08-25T12:04:54;101347.91;;;24.35;50.83
73455;BME280;61690;51.824;6.306;2022-08-25T12:07:26;101346.22;;;24.34;50.55
73455;BME280;61690;51.824;6.306;2022-08-25T12:26:16;101327.91;;;24.94;50.29
73455;BME280;61690;51.824;6.306;2022-08-25T12:29:09;101320.63;;;24.96;50.43
73455;BME280;61690;51.824;6.306;2022-08-25T12:34:28;101313.56;;;25.16;49.95
73455;BME280;61690;51.824;6.306;2022-08-25T12:37:21;101321.50;;;25.27;49.59
73455;BME280;61690;51.824;6.306;2022-08-25T12:42:41;101317.03;;;25.28;50.09
73455;BME280;61690;51.824;6.306;2022-08-25T12:47:42;101317.41;;;25.23;50.43
73455;BME280;61690;51.824;6.306;2022-08-25T12:52:53;101317.31;;;25.34;49.58
73455;BME280;61690;51.824;6.306;2022-08-25T12:55:20;101309.38;;;25.44;49.98
73455;BME280;61690;51.824;6.306;2022-08-25T12:57:51;101312.16;;;25.42;49.97
73455;BME280;61690;51.824;6.306;2022-08-25T13:00:23;101312.25;;;25.31;50.64
73455;BME280;61690;51.824;6.306;2022-08-25T13:03:36;101311.56;;;25.29;50.41
73455;BME280;61690;51.824;6.306;2022-08-25T13:09:06;101304.59;;;25.38;50.82
73455;BME280;61690;51.824;6.306;2022-08-25T13:11:50;101300.38;;;25.35;50.77
73455;BME280;61690;51.824;6.306;2022-08-25T13:14:36;101296.38;;;25.20;50.24
73455;BME280;61690;51.824;6.306;2022-08-25T13:17:03;101299.53;;;25.14;50.35
73455;BME280;61690;51.824;6.306;2022-08-25T13:19:29;101293.25;;;25.15;50.29
73455;BME280;61690;51.824;6.306;2022-08-25T13:21:56;101283.66;;;25.02;50.26
73455;BME280;61690;51.824;6.306;2022-08-25T13:24:33;101287.78;;;25.07;50.37
73455;BME280;61690;51.824;6.306;2022-08-25T13:27:02;101281.75;;;25.04;50.30
73455;BME280;61690;51.824;6.306;2022-08-25T13:29:31;101282.28;;;25.08;50.23
73455;BME280;61690;51.824;6.306;2022-08-25T13:31:57;101276.50;;;24.93;50.50
73455;BME280;61690;51.824;6.306;2022-08-25T13:34:26;101272.84;;;24.94;50.64
73455;BME280;61690;51.824;6.306;2022-08-25T13:36:51;101275.94;;;24.90;50.56
73455;BME280;61690;51.824;6.306;2022-08-25T13:39:37;101273.25;;;24.90;50.93
73455;BME280;61690;51.824;6.306;2022-08-25T13:42:05;101273.84;;;24.93;50.66
73455;BME280;61690;51.824;6.306;2022-08-25T13:44:35;101269.41;;;25.03;51.14
73455;BME280;61690;51.824;6.306;2022-08-25T13:49:35;101262.25;;;25.04;50.34
73455;BME280;61690;51.824;6.306;2022-08-25T13:52:01;101270.94;;;25.06;50.52
73455;BME280;61690;51.824;6.306;2022-08-25T13:54:29;101264.09;;;25.13;49.98
73455;BME280;61690;51.824;6.306;2022-08-25T13:57:25;101261.59;;;25.21;50.29
73455;BME280;61690;51.824;6.306;2022-08-25T13:59:56;101256.69;;;25.17;50.28
73455;BME280;61690;51.824;6.306;2022-08-25T14:05:04;101262.13;;;25.05;50.48
73455;BME280;61690;51.824;6.306;2022-08-25T14:07:30;101255.72;;;25.18;50.31
73455;BME280;61690;51.824;6.306;2022-08-25T14:10:08;101251.38;;;25.17;50.00
73455;BME280;61690;51.824;6.306;2022-08-25T14:12:41;101247.84;;;25.07;50.74
73455;BME280;61690;51.824;6.306;2022-08-25T14:15:26;101251.72;;;25.02;50.60
73455;BME280;61690;51.824;6.306;2022-08-25T14:18:21;101243.31;;;24.97;50.67
73455;BME280;61690;51.824;6.306;2022-08-25T14:20:53;101242.63;;;24.95;50.86
73455;BME280;61690;51.824;6.306;2022-08-25T14:23:22;101242.63;;;24.95;50.94
73455;BME280;61690;51.824;6.306;2022-08-25T14:25:51;101244.41;;;24.95;50.74
73455;BME280;61690;51.824;6.306;2022-08-25T14:28:19;101237.41;;;24.94;51.04
73455;BME280;61690;51.824;6.306;2022-08-25T14:30:49;101241.91;;;24.93;50.54
73455;BME280;61690;51.824;6.306;2022-08-25T14:33:18;101229.56;;;24.92;50.96
73455;BME280;61690;51.824;6.306;2022-08-25T14:35:47;101234.88;;;24.92;50.53
73455;BME280;61690;51.824;6.306;2022-08-25T14:38:14;101233.22;;;24.91;50.95